Susquehanna — WDD9976 — position and weather

sailwx.info

Track history (hours):
 
Tides and Currents Weather Stations Pressure Air Temp Water Temp Dewpoint Dewpoint Depression Visibility Wind Speed Wind Dir Waves Ship Positions

Susquehanna

Owner: Vane Line Bunkering, Inc., Philadelphia, PA. More information available from US FCC via Universal Licensing System and Coast Guard Vessel Documentation Center.

Last reported at 2018-Apr-19 22:41 UTC. Time now 2018-Apr-23 23:26 UTC.
Position N 29°32' W 094°54'.

Length 28 m; draft 4.2 m.

Type: Tug. MMSI: 367318750.

Date/timePositionNaut miles runAvg speedWind from/ knotsBaromVisibWave heightAir tempDewpointWater temp
2018-Apr-19 22:41N 29°32' W 094°54'1 8.0
2018-Apr-19 22:30N 29°33' W 094°54'4 8.2
2018-Apr-19 22:00N 29°36' W 094°57'4 8.1
2018-Apr-19 21:30N 29°40' W 094°59'4 7.7
2018-Apr-19 21:00N 29°43' W 095°01'4 7.6
2018-Apr-19 20:30N 29°46' W 095°05'3 6.2
2018-Apr-19 20:00N 29°44' W 095°08'1 0.0
2018-Apr-18 20:15N 29°44' W 095°09'2 8.1
2018-Apr-18 20:00N 29°44' W 095°07'3 5.8
2018-Apr-18 19:25N 29°44' W 095°03'3 7.4
2018-Apr-18 18:59N 29°42' W 094°60'4 9.2
2018-Apr-18 18:30N 29°38' W 094°58'5 9.6
2018-Apr-18 18:00N 29°34' W 094°55'5 9.6
2018-Apr-18 17:30N 29°30' W 094°52'5 9.5
2018-Apr-18 17:00N 29°25' W 094°50'5 1.9
2018-Apr-18 14:09N 29°21' W 094°46'0 0.1
2018-Apr-18 14:00N 29°21' W 094°46'0 0.0
2018-Apr-18 10:35N 29°21' W 094°46'0 0.0
2018-Apr-18 10:23N 29°21' W 094°46'0 0.0
2018-Apr-17 14:12N 29°21' W 094°46'0 0.1
2018-Apr-17 13:52N 29°21' W 094°46'0 0.1
2018-Apr-17 13:25N 29°21' W 094°46'0 0.0
2018-Apr-17 12:29N 29°21' W 094°46'0 0.0
2018-Apr-17 11:59N 29°21' W 094°46'0 0.0
2018-Apr-17 11:29N 29°21' W 094°46'0 0.0
2018-Apr-17 10:18N 29°21' W 094°46'0 0.1
2018-Apr-17 09:54N 29°21' W 094°46'0 0.0
2018-Apr-17 09:28N 29°21' W 094°46'0 0.1
2018-Apr-17 08:52N 29°21' W 094°46'0 0.1
2018-Apr-17 08:01N 29°21' W 094°46'0 0.1
2018-Apr-17 07:44N 29°21' W 094°46'0 0.0
2018-Apr-17 07:11N 29°21' W 094°46'0 0.0
2018-Apr-17 06:50N 29°21' W 094°46'0 0.0
2018-Apr-17 06:15N 29°21' W 094°46'  
2018-Apr-14 07:51N 29°10' W 094°25'3710.6
2018-Apr-14 04:24N 28°49' W 093°50'  
Track history (hours):
 
Tides and Currents Weather Stations Pressure Air Temp Water Temp Dewpoint Dewpoint Depression Visibility Wind Speed Wind Dir Waves Ship Positions

Susquehanna

Owner: Vane Line Bunkering, Inc., Philadelphia, PA. More information available from US FCC via Universal Licensing System and Coast Guard Vessel Documentation Center.

Last reported at 2018-Apr-19 22:41 UTC. Time now 2018-Apr-23 23:26 UTC.
Position N 29°32' W 094°54'.

Length 28 m; draft 4.2 m.

Type: Tug. MMSI: 367318750.

Date/timePositionNaut miles runAvg speedWind from/ knotsBaromVisibWave heightAir tempDewpointWater temp
2018-Apr-19 22:41N 29°32' W 094°54'1 8.0
2018-Apr-19 22:30N 29°33' W 094°54'4 8.2
2018-Apr-19 22:00N 29°36' W 094°57'4 8.1
2018-Apr-19 21:30N 29°40' W 094°59'4 7.7
2018-Apr-19 21:00N 29°43' W 095°01'4 7.6
2018-Apr-19 20:30N 29°46' W 095°05'3 6.2
2018-Apr-19 20:00N 29°44' W 095°08'1 0.0
2018-Apr-18 20:15N 29°44' W 095°09'2 8.1
2018-Apr-18 20:00N 29°44' W 095°07'3 5.8
2018-Apr-18 19:25N 29°44' W 095°03'3 7.4
2018-Apr-18 18:59N 29°42' W 094°60'4 9.2
2018-Apr-18 18:30N 29°38' W 094°58'5 9.6
2018-Apr-18 18:00N 29°34' W 094°55'5 9.6
2018-Apr-18 17:30N 29°30' W 094°52'5 9.5
2018-Apr-18 17:00N 29°25' W 094°50'5 1.9
2018-Apr-18 14:09N 29°21' W 094°46'0 0.1
2018-Apr-18 14:00N 29°21' W 094°46'0 0.0
2018-Apr-18 10:35N 29°21' W 094°46'0 0.0
2018-Apr-18 10:23N 29°21' W 094°46'0 0.0
2018-Apr-17 14:12N 29°21' W 094°46'0 0.1
2018-Apr-17 13:52N 29°21' W 094°46'0 0.1
2018-Apr-17 13:25N 29°21' W 094°46'0 0.0
2018-Apr-17 12:29N 29°21' W 094°46'0 0.0
2018-Apr-17 11:59N 29°21' W 094°46'0 0.0
2018-Apr-17 11:29N 29°21' W 094°46'0 0.0
2018-Apr-17 10:18N 29°21' W 094°46'0 0.1
2018-Apr-17 09:54N 29°21' W 094°46'0 0.0
2018-Apr-17 09:28N 29°21' W 094°46'0 0.1
2018-Apr-17 08:52N 29°21' W 094°46'0 0.1
2018-Apr-17 08:01N 29°21' W 094°46'0 0.1
2018-Apr-17 07:44N 29°21' W 094°46'0 0.0
2018-Apr-17 07:11N 29°21' W 094°46'0 0.0
2018-Apr-17 06:50N 29°21' W 094°46'0 0.0
2018-Apr-17 06:15N 29°21' W 094°46'  
2018-Apr-14 07:51N 29°10' W 094°25'3710.6
2018-Apr-14 04:24N 28°49' W 093°50'  

Dump ship's entire track history